Accueil
METAR-TAF:

METAR-TAF

Aéroports :

Aéroport international de Maroua Salak

Maroua, Cameroun

latitude: 10-27N, longitude: 014-15E, altitude: 423 m

Observation

Le bulletin a été fait il y a 2 heures et 8 minutes, à 16:00 UTC
Vent 4 kt de nord/nord-est, variant entre ouest et est/nord-est
Température 42°C
Humidité 13%
Pression 1005 hPa
Visibilité: 7000 m

METAR: FKKL 291600Z 02004KT 270V070 7000 NSC 42/08 Q1005

Heure: 19:08 (18:08 UTC)

Prévision

Le bulletin a été fait il y a 13 heures et 8 minutes, à 05:00 UTC
Prévision valable du 29 à 06 UTC au 29 à 18 UTC
Vent 9 kt de nord/nord-est
Visibilité: 8000 m

TAF: FKKL 290500Z 2906/2918 03009KT 8000 NSC

Observations et prévisions météorologiques de plus de 4000 aéroports (messages METAR et TAF).

Les stations disponibles sont représentées par des disques jaunes et rouges sur la carte.

Passer la souris dessus pour voir le nom de la station.

Cliquer dessus pour voir les observations et prévisions météorologiques.

Pour changer de carte: cliquez sur les boutons verts avec une croix noire pour zoomer, sur le bouton vert avec un tiret pour effectuer un zoom arrière, ou sur les flèches vertes pour les cartes adjacentes.


METAR-TAF: